Time;durP1;ratioP1;P1;durP2;ratioP2;P2;SDS_P1;SDS_P2;PMS_P1;PMS_P2;Temp;Humidity;BMP_temperature;BMP_pressure;BME280_temperature;BME280_humidity;BME280_pressure;Samples;Min_cycle;Max_cycle;Signal;HPM_P1;HPM_P2
2023/09/24 00:00:15;;;;;;;5.50;1.88;;;8.80;99.90;;;7.54;100.00;98408.16;4968779;28;20166;-72
2023/09/24 00:02:42;;;;;;;8.75;2.20;;;8.80;99.90;;;7.48;100.00;98415.16;4953611;28;20137;-72
2023/09/24 00:05:12;;;;;;;9.68;3.15;;;8.70;99.90;;;7.34;100.00;98423.13;4966653;28;20502;-72
2023/09/24 00:07:40;;;;;;;7.57;2.65;;;8.50;99.90;;;7.32;100.00;98420.59;4982422;28;20117;-73
2023/09/24 00:10:08;;;;;;;10.07;2.92;;;8.40;99.90;;;7.21;100.00;98431.97;4968348;28;20125;-72
2023/09/24 00:12:36;;;;;;;6.13;2.50;;;8.30;99.90;;;7.17;100.00;98435.47;4984690;28;20138;-72
2023/09/24 00:15:03;;;;;;;9.18;4.30;;;8.30;99.90;;;7.09;100.00;98430.41;4985703;28;20049;-72
2023/09/24 00:17:31;;;;;;;6.57;3.03;;;8.20;99.90;;;7.33;100.00;98429.19;4983998;28;20052;-72
2023/09/24 00:19:58;;;;;;;11.10;4.18;;;8.30;99.90;;;7.28;100.00;98428.41;4985732;28;20514;-72
2023/09/24 00:22:25;;;;;;;11.05;3.25;;;8.30;99.90;;;7.48;100.00;98422.91;4986389;28;20451;-72
2023/09/24 00:24:54;;;;;;;8.45;3.25;;;8.40;99.90;;;7.42;100.00;98438.53;4984866;28;20042;-71
2023/09/24 00:27:21;;;;;;;8.35;3.20;;;8.40;99.90;;;7.54;100.00;98433.16;4986038;28;20043;-72
2023/09/24 00:29:48;;;;;;;11.35;3.30;;;8.50;99.90;;;7.36;100.00;98434.28;4968813;28;20046;-72
2023/09/24 00:32:15;;;;;;;6.30;2.63;;;8.50;99.90;;;7.41;100.00;98424.75;4986047;28;20104;-72
2023/09/24 00:34:42;;;;;;;7.07;2.72;;;8.40;99.90;;;7.28;100.00;98425.81;4984246;28;20054;-72
2023/09/24 00:37:11;;;;;;;8.88;3.97;;;8.30;99.90;;;7.26;100.00;98428.44;4964212;28;20058;-72
2023/09/24 00:39:38;;;;;;;6.75;3.08;;;8.30;99.90;;;7.28;100.00;98431.00;4967024;28;20049;-72
2023/09/24 00:42:07;;;;;;;9.50;3.15;;;8.30;99.90;;;7.38;100.00;98436.84;4982394;28;20058;-72
2023/09/24 00:44:35;;;;;;;7.78;2.78;;;8.30;99.90;;;7.35;100.00;98427.44;4984927;28;20050;-72
2023/09/24 00:47:03;;;;;;;8.85;2.88;;;8.30;99.90;;;7.22;100.00;98426.75;4969593;28;20413;-72
2023/09/24 00:49:32;;;;;;;5.68;2.30;;;8.40;99.90;;;7.22;100.00;98431.09;4988470;28;20519;-73
2023/09/24 00:51:59;;;;;;;6.35;2.38;;;8.30;99.90;;;7.21;100.00;98429.38;4948129;28;20051;-72
2023/09/24 00:54:26;;;;;;;6.97;2.85;;;8.20;99.90;;;7.14;100.00;98433.78;4969810;28;20155;-71
2023/09/24 00:56:58;;;;;;;9.88;2.90;;;8.10;99.90;;;7.03;100.00;98433.94;4965640;28;20054;-72
2023/09/24 00:59:28;;;;;;;4.30;2.22;;;8.10;99.90;;;6.94;100.00;98440.97;4955669;28;20049;-72
2023/09/24 01:01:57;;;;;;;3.70;1.55;;;8.00;99.90;;;6.91;100.00;98437.56;4968493;28;20489;-72
2023/09/24 01:04:24;;;;;;;6.88;2.10;;;7.80;99.90;;;6.80;100.00;98439.44;4967106;28;20062;-72
2023/09/24 01:06:52;;;;;;;4.90;2.22;;;7.80;99.90;;;6.62;100.00;98437.09;4969686;28;20050;-71
2023/09/24 01:09:19;;;;;;;7.18;1.95;;;7.70;99.90;;;6.76;100.00;98435.19;4962606;28;20738;-72
2023/09/24 01:11:52;;;;;;;5.10;2.10;;;7.70;99.90;;;6.64;100.00;98432.78;4984855;28;20774;-72
2023/09/24 01:14:20;;;;;;;6.13;1.50;;;7.70;99.90;;;6.90;100.00;98429.81;4971440;28;20086;-72
2023/09/24 01:16:47;;;;;;;8.38;1.50;;;7.80;99.90;;;6.81;100.00;98424.78;4986993;28;20046;-72
2023/09/24 01:19:14;;;;;;;5.13;2.00;;;7.90;99.90;;;6.63;100.00;98429.31;4984378;28;20086;-73
2023/09/24 01:21:43;;;;;;;8.60;2.10;;;7.80;99.90;;;6.65;100.00;98426.72;4967776;28;20141;-72
2023/09/24 01:24:10;;;;;;;5.47;1.60;;;7.80;99.90;;;6.82;100.00;98426.50;4967859;28;20054;-72
2023/09/24 01:26:38;;;;;;;4.00;1.50;;;7.80;99.90;;;6.85;100.00;98424.72;4966673;28;20090;-72
2023/09/24 01:29:07;;;;;;;5.13;1.50;;;7.80;99.90;;;6.92;100.00;98417.75;4951460;28;20054;-72
2023/09/24 01:31:38;;;;;;;8.73;1.65;;;7.90;99.90;;;6.96;100.00;98416.84;4986406;28;20241;-72
2023/09/24 01:34:05;;;;;;;3.45;1.10;;;7.90;99.90;;;7.04;100.00;98419.28;4970250;28;20122;-72
2023/09/24 01:36:33;;;;;;;6.85;1.40;;;8.00;99.90;;;7.03;100.00;98420.19;4984517;28;20130;-72
2023/09/24 01:39:00;;;;;;;3.40;1.00;;;8.10;99.90;;;7.12;100.00;98430.38;4985520;28;20216;-72
2023/09/24 01:41:30;;;;;;;5.47;1.23;;;8.10;99.90;;;7.05;100.00;98421.03;4985100;28;20061;-72
2023/09/24 01:43:59;;;;;;;4.88;1.40;;;8.10;99.90;;;6.98;100.00;98429.69;4987089;28;20633;-72
2023/09/24 01:46:26;;;;;;;7.82;1.80;;;8.00;99.90;;;6.87;100.00;98429.88;4969295;28;20137;-72
2023/09/24 01:48:54;;;;;;;4.95;1.33;;;7.90;99.90;;;6.79;100.00;98442.03;4985014;28;20511;-71
2023/09/24 01:51:21;;;;;;;7.13;1.70;;;7.80;99.90;;;6.77;100.00;98443.75;4969730;28;20050;-72
2023/09/24 01:53:48;;;;;;;7.50;2.33;;;7.70;99.90;;;6.54;100.00;98446.66;4985326;28;20080;-72
2023/09/24 01:56:18;;;;;;;5.78;2.45;;;7.60;99.90;;;6.33;100.00;98446.03;4966785;28;20104;-72
2023/09/24 01:58:46;;;;;;;11.57;3.67;;;7.40;99.90;;;6.24;100.00;98435.81;4969723;28;20051;-71
2023/09/24 02:01:13;;;;;;;8.52;2.65;;;7.30;99.90;;;6.18;100.00;98441.91;4980352;28;20081;-72
2023/09/24 02:03:41;;;;;;;12.05;3.85;;;7.30;99.90;;;6.02;100.00;98442.94;4982759;28;20138;-74
2023/09/24 02:06:09;;;;;;;13.80;5.00;;;7.20;99.90;;;6.02;100.00;98440.34;4968227;28;20081;-72
2023/09/24 02:08:36;;;;;;;13.55;4.35;;;7.10;99.90;;;5.92;100.00;98441.31;4985506;28;20077;-74
2023/09/24 02:11:03;;;;;;;12.07;3.65;;;7.00;99.90;;;5.92;100.00;98447.31;4968283;28;20536;-74
2023/09/24 02:13:30;;;;;;;7.10;2.10;;;7.00;99.90;;;5.97;100.00;98434.41;4963805;28;20042;-74
2023/09/24 02:16:00;;;;;;;6.55;2.40;;;6.90;99.90;;;6.03;100.00;98437.78;4983358;28;20042;-74
2023/09/24 02:18:32;;;;;;;8.23;2.10;;;6.90;99.90;;;6.08;100.00;98435.13;4969935;28;20092;-74
2023/09/24 02:21:00;;;;;;;;;;;7.00;99.90;;;6.23;100.00;98442.72;4966514;28;20131;-74
2023/09/24 02:23:28;;;;;;;9.13;1.70;;;7.10;99.90;;;6.24;100.00;98438.41;4965313;28;19969;-74
2023/09/24 02:25:55;;;;;;;8.35;1.50;;;7.20;99.90;;;6.13;100.00;98437.66;4952718;28;20093;-74
2023/09/24 02:28:24;;;;;;;4.28;1.55;;;7.20;99.90;;;6.02;100.00;98441.22;4967231;28;20058;-74
2023/09/24 02:30:53;;;;;;;7.05;1.85;;;7.10;99.90;;;5.92;100.00;98441.31;4969511;28;20050;-74
2023/09/24 02:33:21;;;;;;;6.88;2.00;;;7.00;99.90;;;6.06;100.00;98445.47;4979906;28;20471;-74
2023/09/24 02:35:49;;;;;;;3.50;1.17;;;7.00;99.90;;;6.24;100.00;98447.00;4982227;28;20050;-74
2023/09/24 02:38:16;;;;;;;5.28;1.38;;;7.10;99.90;;;6.17;100.00;98449.66;4963821;28;20047;-75
2023/09/24 02:40:44;;;;;;;3.47;1.25;;;7.10;99.90;;;6.21;100.00;98447.03;4982211;28;20141;-74
2023/09/24 02:43:12;;;;;;;3.58;1.17;;;7.20;99.90;;;6.32;100.00;98453.78;4967474;28;20054;-74
2023/09/24 02:45:40;;;;;;;2.60;1.17;;;7.20;99.90;;;6.38;100.00;98451.13;4978148;28;20050;-74
2023/09/24 02:48:07;;;;;;;5.82;1.30;;;7.30;99.90;;;6.41;100.00;98445.94;4966623;28;20051;-74
2023/09/24 02:50:35;;;;;;;2.05;0.90;;;7.40;99.90;;;6.33;100.00;98458.06;4982974;28;20050;-74
2023/09/24 02:53:04;;;;;;;9.98;1.48;;;7.40;99.90;;;6.13;100.00;98453.97;4967580;28;20052;-74
2023/09/24 02:55:32;;;;;;;4.38;1.33;;;7.40;99.90;;;6.15;100.00;98457.41;4951787;28;20045;-74
2023/09/24 02:57:59;;;;;;;2.58;1.20;;;7.30;99.90;;;6.03;100.00;98460.97;4984151;28;20054;-74
2023/09/24 03:00:30;;;;;;;2.80;1.23;;;7.30;99.90;;;6.05;100.00;98458.38;4952947;28;20533;-74
2023/09/24 03:03:00;;;;;;;3.72;1.00;;;7.30;99.90;;;5.96;100.00;98456.75;4988750;28;20089;-74
2023/09/24 03:05:29;;;;;;;2.95;0.95;;;7.20;99.90;;;6.00;100.00;98455.84;4968038;28;20565;-74
2023/09/24 03:08:02;;;;;;;3.08;1.20;;;7.10;99.90;;;6.06;100.00;98460.06;4984859;28;20137;-75
2023/09/24 03:10:31;;;;;;;2.75;1.10;;;7.10;99.90;;;5.82;100.00;98456.84;4968971;28;20054;-74
2023/09/24 03:12:59;;;;;;;5.47;1.55;;;7.00;99.90;;;5.93;100.00;98463.59;4963199;28;20046;-75
2023/09/24 03:15:27;;;;;;;8.35;1.40;;;7.10;99.90;;;5.90;100.00;98461.06;4971670;28;20058;-74
2023/09/24 03:17:54;;;;;;;5.53;1.30;;;7.00;99.90;;;5.93;100.00;98467.06;4966348;28;20144;-73
2023/09/24 03:20:23;;;;;;;3.13;1.10;;;7.10;99.90;;;6.03;100.00;98471.28;4981802;28;20050;-72
2023/09/24 03:22:56;;;;;;;5.22;1.58;;;7.10;99.90;;;6.03;100.00;98471.28;4966203;28;20054;-74
2023/09/24 03:25:28;;;;;;;4.17;1.00;;;7.10;99.90;;;6.10;100.00;98474.66;4966154;28;20046;-73
2023/09/24 03:28:03;;;;;;;5.38;1.08;;;7.20;99.90;;;6.06;100.00;98484.13;4967539;28;20050;-74
2023/09/24 03:30:30;;;;;;;4.88;1.13;;;7.20;99.90;;;6.06;100.00;98483.28;4966226;28;20054;-74
2023/09/24 03:32:58;;;;;;;2.60;0.85;;;7.10;99.90;;;6.03;100.00;98479.00;4977764;28;20085;-75
2023/09/24 03:35:27;;;;;;;2.35;0.95;;;7.10;99.90;;;5.93;100.00;98486.81;4968112;28;20051;-75
2023/09/24 03:37:56;;;;;;;1.88;0.73;;;7.00;99.90;;;6.00;100.00;98491.09;4967601;28;20137;-75
2023/09/24 03:40:28;;;;;;;2.08;0.90;;;7.10;99.90;;;6.05;100.00;98489.31;4988377;28;20454;-74
2023/09/24 03:42:56;;;;;;;3.33;1.55;;;7.00;99.90;;;5.73;100.00;98494.72;4986528;28;20272;-75
2023/09/24 03:45:24;;;;;;;3.50;0.93;;;7.00;99.90;;;5.79;100.00;98492.97;4981015;28;20518;-75
2023/09/24 03:47:53;;;;;;;2.92;1.20;;;6.90;99.90;;;5.77;100.00;98489.53;4983908;28;20178;-74
2023/09/24 03:50:20;;;;;;;4.50;0.90;;;6.80;99.90;;;5.64;100.00;98490.50;4983864;28;20982;-74
2023/09/24 03:52:50;;;;;;;1.75;0.98;;;6.70;99.90;;;5.68;100.00;98488.75;4969366;28;20054;-74
2023/09/24 03:55:21;;;;;;;5.40;1.60;;;6.70;99.90;;;5.64;100.00;98491.34;4981497;28;20590;-74
2023/09/24 03:57:49;;;;;;;3.75;1.20;;;6.60;99.90;;;5.48;100.00;98499.22;4987428;28;20530;-74
2023/09/24 04:00:21;;;;;;;4.25;1.60;;;6.50;99.90;;;5.33;100.00;98507.91;4983724;28;20538;-74
2023/09/24 04:02:49;;;;;;;6.97;1.33;;;6.50;99.90;;;5.56;100.00;98502.56;4968402;28;20054;-74
2023/09/24 04:05:21;;;;;;;3.38;1.27;;;6.50;99.90;;;5.62;100.00;98494.81;4972388;28;20644;-74
2023/09/24 04:07:54;;;;;;;3.42;1.17;;;6.60;99.90;;;5.64;100.00;98506.81;4954490;28;20042;-74
2023/09/24 04:10:23;;;;;;;5.85;1.77;;;6.70;99.90;;;5.35;100.00;98507.00;4970502;28;20054;-75
2023/09/24 04:12:51;;;;;;;4.47;1.60;;;6.60;99.90;;;5.20;100.00;98509.69;4970194;28;20078;-74
2023/09/24 04:15:23;;;;;;;9.88;2.08;;;6.40;99.90;;;5.05;100.00;98517.50;4969671;28;20117;-74
2023/09/24 04:17:50;;;;;;;8.18;1.33;;;6.30;99.90;;;5.19;100.00;98519.13;4985179;28;20058;-74
2023/09/24 04:20:20;;;;;;;4.47;2.55;;;6.20;99.90;;;5.00;100.00;98528.69;4971558;28;20139;-75
2023/09/24 04:22:49;;;;;;;8.15;2.25;;;6.10;99.90;;;5.02;100.00;98523.53;4970704;28;20125;-74
2023/09/24 04:25:21;;;;;;;7.70;2.50;;;6.10;99.90;;;5.01;100.00;98521.81;4985432;28;20767;-74
2023/09/24 04:27:49;;;;;;;3.95;1.20;;;6.10;99.90;;;5.22;100.00;98519.13;4986300;28;20426;-74
2023/09/24 04:30:20;;;;;;;3.63;1.23;;;6.20;99.90;;;5.34;100.00;98528.50;4955116;28;20507;-74
2023/09/24 04:32:54;;;;;;;3.47;1.20;;;6.30;99.90;;;5.24;100.00;98530.28;4987794;28;20073;-74
2023/09/24 04:35:22;;;;;;;2.75;1.42;;;6.30;99.90;;;5.17;100.00;98526.00;4967550;28;20069;-74
2023/09/24 04:37:51;;;;;;;4.30;1.33;;;6.30;99.90;;;5.17;100.00;98532.88;4985139;28;20688;-73
2023/09/24 04:40:19;;;;;;;6.75;1.70;;;6.30;99.90;;;5.26;100.00;98532.81;4987160;28;20133;-74
2023/09/24 04:42:50;;;;;;;5.47;1.17;;;6.30;99.90;;;5.17;100.00;98531.16;4970241;28;20138;-73
2023/09/24 04:45:20;;;;;;;4.25;1.45;;;6.20;99.90;;;5.16;100.00;98541.47;4984400;28;20483;-74
2023/09/24 04:47:48;;;;;;;2.60;1.20;;;6.20;99.90;;;5.34;100.00;98538.78;4973534;28;20046;-74
2023/09/24 04:50:17;;;;;;;4.72;1.25;;;6.30;99.90;;;5.39;100.00;98538.75;4981937;28;20042;-74
2023/09/24 04:52:47;;;;;;;3.42;1.30;;;6.40;99.90;;;5.42;100.00;98539.56;4970525;28;20530;-75
2023/09/24 04:55:15;;;;;;;4.60;1.67;;;6.40;99.90;;;5.54;100.00;98540.34;4968865;28;20062;-75
2023/09/24 04:57:46;;;;;;;5.38;1.38;;;6.50;99.90;;;5.65;100.00;98546.28;4975297;28;20112;-75
2023/09/24 05:00:15;;;;;;;3.15;1.10;;;6.60;99.90;;;5.61;100.00;98549.75;4990277;28;20057;-75
2023/09/24 05:02:43;;;;;;;4.68;1.58;;;6.70;99.90;;;5.68;100.00;98545.41;4974417;28;20046;-75
2023/09/24 05:05:11;;;;;;;3.97;1.63;;;6.60;99.90;;;5.63;100.00;98556.63;4983444;28;20591;-75
2023/09/24 05:07:39;;;;;;;3.72;1.73;;;6.60;99.90;;;5.48;100.00;98558.44;4969548;28;20047;-74
2023/09/24 05:10:08;;;;;;;3.58;1.42;;;6.60;99.90;;;5.45;100.00;98561.88;4985915;28;20050;-74
2023/09/24 05:12:35;;;;;;;3.42;1.33;;;6.50;99.90;;;5.43;100.00;98567.03;4972638;28;20046;-75
2023/09/24 05:15:04;;;;;;;3.53;1.50;;;6.40;99.90;;;5.20;100.00;98574.91;4972092;28;20054;-75
2023/09/24 05:17:33;;;;;;;3.00;1.40;;;6.30;99.90;;;5.22;100.00;98585.16;4969182;28;20096;-74
2023/09/24 05:20:02;;;;;;;4.95;1.27;;;6.20;99.90;;;5.07;100.00;98586.13;4967301;28;20058;-75
2023/09/24 05:22:29;;;;;;;3.15;1.00;;;6.10;99.90;;;4.90;100.00;98582.75;4967289;28;20116;-74
2023/09/24 05:24:57;;;;;;;6.28;1.13;;;6.00;99.90;;;4.93;100.00;98591.31;4969585;28;20510;-74
2023/09/24 05:27:26;;;;;;;4.07;1.63;;;6.00;99.90;;;4.92;100.00;98592.16;4950369;28;20054;-74
2023/09/24 05:29:53;;;;;;;6.60;1.52;;;5.90;99.90;;;4.96;100.00;98593.88;4970618;28;20050;-74
2023/09/24 05:32:21;;;;;;;6.32;1.75;;;5.90;99.90;;;5.15;100.00;98596.38;4968965;28;20518;-72
2023/09/24 05:34:54;;;;;;;3.35;1.60;;;6.00;99.90;;;5.06;100.00;98591.25;4983459;28;20062;-73
2023/09/24 05:37:22;;;;;;;8.63;2.40;;;6.10;99.90;;;4.95;100.00;98593.88;4983376;28;20053;-74
2023/09/24 05:39:49;;;;;;;25.63;3.80;;;6.00;99.90;;;4.97;100.00;98598.16;4966069;28;20129;-74
2023/09/24 05:42:16;;;;;;;6.60;2.50;;;6.00;99.90;;;5.17;100.00;98586.91;4967321;28;20599;-74
2023/09/24 05:44:44;;;;;;;7.15;2.33;;;6.00;99.90;;;5.33;100.00;98596.28;4970406;28;20057;-74
2023/09/24 05:47:11;;;;;;;6.25;2.25;;;6.20;99.90;;;5.56;100.00;98598.72;4985363;28;20422;-74
2023/09/24 05:49:39;;;;;;;8.05;2.05;;;6.30;99.90;;;5.57;100.00;98597.00;4965211;28;20429;-74
2023/09/24 05:52:06;;;;;;;3.50;1.15;;;6.50;99.90;;;5.41;100.00;98604.81;4988694;28;20081;-74
2023/09/24 05:54:33;;;;;;;5.15;1.42;;;6.50;99.90;;;5.13;100.00;98611.84;4985730;28;20095;-73
2023/09/24 05:57:01;;;;;;;3.17;1.52;;;6.50;99.90;;;5.44;100.00;98615.09;4965969;28;20094;-73
2023/09/24 05:59:28;;;;;;;2.78;1.40;;;6.40;99.90;;;5.41;100.00;98622.84;4969073;28;20058;-74
2023/09/24 06:01:55;;;;;;;3.40;1.90;;;6.50;99.90;;;5.50;100.00;98629.66;4967728;28;20142;-72
2023/09/24 06:04:22;;;;;;;5.28;1.95;;;6.50;99.90;;;5.73;100.00;98629.53;4969445;28;20054;-73
2023/09/24 06:06:50;;;;;;;4.53;1.80;;;6.60;99.90;;;5.78;100.00;98630.34;4984369;28;20046;-74
2023/09/24 06:09:17;;;;;;;3.42;1.50;;;6.70;99.90;;;6.00;100.00;98637.97;4965602;28;20074;-73
2023/09/24 06:11:45;;;;;;;5.72;2.70;;;6.80;99.90;;;6.14;100.00;98638.72;4983195;28;20073;-74
2023/09/24 06:14:12;;;;;;;7.75;3.10;;;6.90;99.90;;;5.78;100.00;98643.22;4967301;28;20070;-74
2023/09/24 06:16:39;;;;;;;6.28;2.35;;;7.00;99.90;;;6.18;100.00;98643.00;4988916;28;20054;-74
2023/09/24 06:19:06;;;;;;;8.55;2.25;;;6.90;99.90;;;6.09;100.00;98648.22;4969265;28;20137;-74
2023/09/24 06:21:34;;;;;;;5.13;2.22;;;6.90;99.90;;;6.24;100.00;98645.50;4977362;28;20050;-74
2023/09/24 06:24:01;;;;;;;8.20;2.72;;;7.00;99.90;;;6.25;100.00;98646.38;4981470;28;20046;-73
2023/09/24 06:26:32;;;;;;;4.70;1.80;;;7.00;99.90;;;6.12;100.00;98649.91;4984027;28;20531;-74
2023/09/24 06:28:59;;;;;;;6.25;2.22;;;7.00;99.90;;;5.99;100.00;98641.41;4967858;28;20050;-74
2023/09/24 06:31:37;;;;;;;4.55;1.60;;;6.90;99.90;;;6.25;100.00;98651.53;4967988;28;20181;-74
2023/09/24 06:34:04;;;;;;;5.47;2.03;;;7.00;99.90;;;6.48;100.00;98646.19;4983062;28;20054;-74
2023/09/24 06:36:31;;;;;;;7.72;2.58;;;7.10;99.90;;;6.59;100.00;98646.06;4974258;28;20157;-73
2023/09/24 06:38:59;;;;;;;4.63;2.03;;;7.30;99.90;;;6.62;100.00;98649.47;4979302;28;20046;-74
2023/09/24 06:41:27;;;;;;;8.55;2.53;;;7.30;99.90;;;6.58;100.00;98650.38;4967834;28;20518;-74
2023/09/24 06:43:54;;;;;;;7.07;2.45;;;7.40;99.90;;;6.79;100.00;98651.88;4952801;28;20054;-74
2023/09/24 06:46:21;;;;;;;7.18;2.22;;;7.50;99.90;;;6.77;100.00;98650.19;4965723;28;20100;-73
2023/09/24 06:48:49;;;;;;;4.28;2.03;;;7.60;99.90;;;6.96;100.00;98650.88;4967729;28;20051;-74
2023/09/24 06:51:16;;;;;;;4.60;2.30;;;7.70;99.90;;;6.97;100.00;98644.81;4969859;28;20088;-74
2023/09/24 06:53:43;;;;;;;4.35;2.47;;;7.70;99.90;;;6.84;100.00;98655.28;4986298;28;20129;-74
2023/09/24 06:56:10;;;;;;;5.25;2.45;;;7.60;99.90;;;6.87;100.00;98654.41;4982955;28;20608;-74
2023/09/24 06:58:37;;;;;;;5.15;1.88;;;7.70;99.90;;;7.32;100.00;98658.19;4980886;28;20101;-74
2023/09/24 07:01:06;;;;;;;5.28;2.42;;;7.90;99.90;;;7.34;100.00;98655.56;4968855;28;20057;-74
2023/09/24 07:03:33;;;;;;;5.25;1.85;;;8.00;99.90;;;7.56;100.00;98648.41;4982346;28;20054;-73
2023/09/24 07:06:05;;;;;;;3.55;1.80;;;8.10;99.90;;;7.66;100.00;98647.44;4984696;28;20149;-74
2023/09/24 07:08:33;;;;;;;5.03;2.00;;;8.20;99.90;;;7.78;100.00;98640.34;4979885;28;20223;-74
2023/09/24 07:11:31;;;;;;;4.95;2.00;;;8.40;99.90;;;7.96;100.00;98650.44;4965423;28;20081;-73
2023/09/24 07:13:59;;;;;;;5.60;1.98;;;8.50;99.90;;;8.28;100.00;98643.91;4982888;28;20659;-74
2023/09/24 07:16:28;;;;;;;4.35;2.20;;;8.70;99.90;;;8.06;100.00;98658.91;4971744;28;20519;-74
2023/09/24 07:19:03;;;;;;;3.17;1.67;;;8.80;99.90;;;8.29;100.00;98645.63;4965927;28;20142;-71
2023/09/24 07:21:31;;;;;;;3.78;2.22;;;8.90;99.90;;;8.38;100.00;98656.66;4967948;28;20062;-75
2023/09/24 07:24:04;;;;;;;3.03;1.45;;;9.00;99.90;;;8.63;100.00;98664.06;4962205;28;20070;-74
2023/09/24 07:26:32;;;;;;;3.63;1.40;;;9.20;99.90;;;9.06;100.00;98667.59;4985500;28;20071;-74
2023/09/24 07:29:00;;;;;;;4.35;1.40;;;9.40;99.90;;;9.38;100.00;98665.22;4969961;28;20059;-74
2023/09/24 07:31:28;;;;;;;4.32;1.88;;;9.60;99.90;;;9.73;100.00;98663.63;4971773;28;20070;-74
2023/09/24 07:33:59;;;;;;;5.63;2.00;;;9.90;99.90;;;10.06;100.00;98663.78;4950655;28;20058;-73
2023/09/24 07:36:32;;;;;;;3.42;1.30;;;10.20;99.90;;;10.75;100.00;98666.44;4970630;28;20124;-74
2023/09/24 07:39:11;;;;;;;3.17;1.35;;;10.40;99.90;;;11.84;100.00;98664.25;4969827;28;20058;-74
2023/09/24 07:41:38;;;;;;;3.40;1.27;;;10.80;99.90;;;12.61;100.00;98668.78;4978847;28;20129;-74
2023/09/24 07:44:06;;;;;;;4.68;1.63;;;11.20;99.90;;;13.41;100.00;98655.59;4991565;28;20141;-74
2023/09/24 07:46:34;;;;;;;6.03;1.65;;;11.70;99.90;;;13.85;100.00;98660.91;4963282;28;20050;-74
2023/09/24 07:49:05;;;;;;;6.45;1.63;;;12.50;99.90;;;14.17;100.00;98651.81;4969671;28;20101;-74
2023/09/24 07:51:32;;;;;;;4.77;1.27;;;13.40;99.90;;;14.68;100.00;98639.31;4973649;28;20057;-75
2023/09/24 07:54:00;;;;;;;3.38;1.23;;;14.50;99.90;;;14.71;100.00;98631.34;4970629;28;20050;-72
2023/09/24 07:56:27;;;;;;;3.88;1.40;;;15.60;99.90;;;15.05;100.00;98633.34;4987086;28;20061;-73
2023/09/24 07:58:57;;;;;;;3.90;1.40;;;16.30;99.90;;;15.78;100.00;98633.56;4955287;28;20706;-73
2023/09/24 08:01:24;;;;;;;3.42;1.50;;;17.20;99.90;;;16.89;100.00;98634.28;4987202;28;20146;-72
2023/09/24 08:03:52;;;;;;;3.22;1.20;;;18.20;99.90;;;16.67;100.00;98639.72;4971410;28;20444;-73
2023/09/24 08:06:20;;;;;;;5.97;1.55;;;19.00;99.90;;;16.42;100.00;98642.72;4970485;28;20054;-73
2023/09/24 08:08:47;;;;;;;3.75;1.30;;;19.30;99.90;;;16.88;100.00;98641.31;4979777;28;20073;-71
2023/09/24 08:11:32;;;;;;;5.93;1.58;;;19.60;99.90;;;17.10;100.00;98640.19;4973836;28;20062;-72
2023/09/24 08:13:59;;;;;;;5.20;1.63;;;19.60;99.90;;;17.31;100.00;98649.56;4982360;28;20146;-73
2023/09/24 08:16:28;;;;;;;2.88;1.10;;;19.90;99.90;;;17.76;100.00;98663.75;4986114;28;20057;-71
2023/09/24 08:18:58;;;;;;;5.20;1.40;;;20.30;99.90;;;17.79;100.00;98662.75;4956282;28;20093;-73
2023/09/24 08:21:28;;;;;;;4.25;1.25;;;20.50;99.90;;;18.12;100.00;98667.09;4972993;28;20499;-73
2023/09/24 08:23:57;;;;;;;3.75;1.48;;;20.60;99.90;;;17.50;100.00;98664.34;4986866;28;20057;-72
2023/09/24 08:26:24;;;;;;;3.53;1.13;;;20.70;99.90;;;18.89;100.00;98666.19;4957632;28;20520;-72
2023/09/24 08:28:51;;;;;;;5.97;1.20;;;20.70;99.90;;;19.17;100.00;98664.53;4970102;28;20050;-73
2023/09/24 08:31:20;;;;;;;4.78;1.30;;;21.10;99.90;;;19.76;100.00;98673.22;4970220;28;20050;-73
2023/09/24 08:33:47;;;;;;;4.53;1.15;;;21.40;99.90;;;20.46;100.00;98662.56;4985021;28;20062;-73
2023/09/24 08:36:15;;;;;;;5.20;1.30;;;21.90;99.90;;;20.22;100.00;98675.56;4969637;28;20539;-73
2023/09/24 08:38:43;;;;;;;3.65;1.20;;;22.20;99.90;;;19.87;100.00;98677.81;4965646;28;20057;-73
2023/09/24 08:41:12;;;;;;;3.00;1.10;;;22.30;99.90;;;18.94;100.00;98677.28;4986041;28;20815;-72
2023/09/24 08:43:41;;;;;;;3.55;1.10;;;22.20;99.90;;;20.09;100.00;98672.00;4969727;28;20069;-73
2023/09/24 08:46:10;;;;;;;4.28;1.35;;;22.10;99.90;;;19.78;100.00;98673.97;4969044;28;20054;-73
2023/09/24 08:48:39;;;;;;;3.25;1.13;;;;;;;19.98;100.00;98672.72;4980549;28;20058;-73
2023/09/24 08:51:11;;;;;;;2.55;1.02;;;22.40;99.90;;;19.71;100.00;98671.81;4983385;28;20557;-72
2023/09/24 08:53:41;;;;;;;5.18;0.98;;;22.40;99.90;;;20.18;100.00;98678.50;4967678;28;20053;-73
2023/09/24 08:56:09;;;;;;;3.10;0.80;;;22.50;99.90;;;20.87;100.00;98669.56;4967769;28;20051;-73
2023/09/24 08:58:40;;;;;;;2.13;0.80;;;22.80;99.90;;;21.08;100.00;98676.97;4970414;28;20122;-71
2023/09/24 09:01:10;;;;;;;3.55;1.05;;;23.30;99.90;;;20.80;100.00;98678.84;4969704;28;20055;-72
2023/09/24 09:03:39;;;;;;;;;;;23.30;99.90;;;20.75;100.00;98682.72;4969556;28;20625;-73
2023/09/24 09:06:07;;;;;;;4.97;1.00;;;23.00;99.90;;;20.35;100.00;98693.25;4979625;28;19934;-73
2023/09/24 09:08:53;;;;;;;5.97;0.98;;;22.80;99.90;;;21.59;100.00;98681.44;4983048;28;20498;-73
2023/09/24 09:11:40;;;;;;;4.57;0.98;;;23.20;99.90;;;22.06;100.00;98675.41;4984576;28;20050;-72
2023/09/24 09:14:11;;;;;;;5.38;0.80;;;23.50;99.90;;;21.75;100.00;98673.25;4984458;28;20473;-73
2023/09/24 09:17:04;;;;;;;3.92;0.80;;;23.80;99.90;;;22.25;100.00;98669.63;4962021;28;20046;-74
2023/09/24 09:19:55;;;;;;;2.78;0.88;;;23.80;99.90;;;23.78;100.00;98659.78;4981859;28;20050;-74
2023/09/24 09:22:25;;;;;;;2.53;0.70;;;24.40;99.90;;;23.14;100.00;98651.56;4967133;28;20042;-74
2023/09/24 09:25:09;;;;;;;3.30;0.70;;;24.80;99.90;;;22.02;100.00;98654.59;4966157;28;20042;-74
2023/09/24 09:27:42;;;;;;;3.05;0.88;;;24.70;99.60;;;21.71;100.00;98668.22;4988335;28;20050;-74
2023/09/24 09:30:18;;;;;;;2.90;0.90;;;24.30;99.90;;;22.09;100.00;98655.81;4984345;28;20133;-73
2023/09/24 09:32:47;;;;;;;3.13;0.63;;;24.10;99.90;;;21.22;100.00;98668.09;4967485;28;20117;-74
2023/09/24 09:35:16;;;;;;;3.97;0.70;;;23.90;99.90;;;20.93;100.00;98662.16;4985100;28;20090;-73
2023/09/24 09:37:44;;;;;;;2.33;0.47;;;23.60;99.80;;;21.86;100.00;98649.56;4981525;28;20062;-73
2023/09/24 09:40:11;;;;;;;2.55;0.70;;;23.70;99.60;;;21.61;100.00;98653.94;4984205;28;20078;-71
2023/09/24 09:42:39;;;;;;;1.42;0.63;;;24.00;99.80;;;20.92;100.00;98649.94;4967319;28;20545;-75
2023/09/24 09:45:10;;;;;;;2.00;0.50;;;24.00;99.90;;;20.00;100.00;98652.38;4969167;28;20064;-73
2023/09/24 09:48:00;;;;;;;3.80;0.75;;;23.20;99.60;;;19.93;100.00;98645.78;4966872;28;20461;-73
2023/09/24 09:50:31;;;;;;;3.03;0.90;;;;;;;19.25;100.00;98648.28;4970998;28;20470;-74
2023/09/24 09:53:07;;;;;;;1.50;0.60;;;23.00;99.90;;;18.38;100.00;98650.72;4981755;28;20069;-74
2023/09/24 09:55:42;;;;;;;2.17;0.80;;;23.00;99.90;;;18.13;100.00;98648.63;4967730;28;20131;-73
2023/09/24 09:58:11;;;;;;;2.03;0.68;;;22.30;99.90;;;18.54;100.00;98652.44;4971301;28;20530;-73
2023/09/24 10:00:49;;;;;;;2.25;0.63;;;22.00;99.90;;;18.74;100.00;98649.50;4953997;28;20069;-71
2023/09/24 10:03:17;;;;;;;3.95;0.70;;;21.60;99.90;;;18.99;100.00;98650.69;4966486;28;20561;-72
2023/09/24 10:05:46;;;;;;;2.45;0.75;;;21.30;99.90;;;17.51;100.00;98651.09;4979390;28;20669;-72
2023/09/24 10:08:39;;;;;;;2.45;0.60;;;20.90;99.90;;;17.73;100.00;98648.16;4979483;28;20054;-72
2023/09/24 10:11:12;;;;;;;2.53;0.70;;;19.80;99.90;;;16.67;100.00;98644.97;4970196;28;20050;-72
2023/09/24 10:13:50;;;;;;;2.15;0.70;;;19.20;99.90;;;17.30;100.00;98639.97;4967962;28;20074;-73
2023/09/24 10:16:29;;;;;;;1.65;0.70;;;19.00;99.90;;;17.80;100.00;98634.72;4968430;28;20488;-72
2023/09/24 10:19:11;;;;;;;3.30;0.70;;;19.10;99.90;;;17.95;100.00;98624.25;4981965;28;20482;-73
2023/09/24 10:21:44;;;;;;;;;;;19.20;99.90;;;17.65;100.00;98626.75;4967230;28;20467;-71
2023/09/24 10:24:14;;;;;;;2.10;0.75;;;19.10;99.90;;;17.37;100.00;98618.66;4963884;28;20024;-71
2023/09/24 10:27:02;;;;;;;2.70;0.70;;;18.90;99.90;;;16.98;100.00;98609.34;4982156;28;20093;-71
2023/09/24 10:29:45;;;;;;;3.22;0.77;;;18.50;99.90;;;16.84;100.00;98603.06;4965411;28;20054;-72
2023/09/24 10:32:17;;;;;;;1.85;0.60;;;18.20;99.90;;;16.60;100.00;98606.88;4984062;28;20060;-74